createdAt,value
2023-02-09T00:02:23.953Z,103401.47
2023-02-09T00:04:50.675Z,103402.44
2023-02-09T00:07:17.330Z,103382.94
2023-02-09T00:09:45.384Z,103381.06
2023-02-09T00:12:30.743Z,103375.72
2023-02-09T00:14:57.341Z,103370.44
2023-02-09T00:17:24.049Z,103361.59
2023-02-09T00:19:50.677Z,103355.28
2023-02-09T00:22:17.300Z,103352.63
2023-02-09T00:24:43.997Z,103352.66
2023-02-09T00:27:10.727Z,103350.03
2023-02-09T00:29:37.453Z,103344.66
2023-02-09T00:32:04.423Z,103340.22
2023-02-09T00:34:31.108Z,103339.25
2023-02-09T00:36:57.812Z,103336.72
2023-02-09T00:39:24.457Z,103327.78
2023-02-09T00:42:06.200Z,103330.38
2023-02-09T00:44:37.940Z,103323.22
2023-02-09T00:47:06.732Z,103322.47
2023-02-09T00:49:33.827Z,103314.28
2023-02-09T00:52:00.723Z,103312.50
2023-02-09T00:54:27.591Z,103301.06
2023-02-09T00:56:58.701Z,103310.00
2023-02-09T00:59:26.091Z,103302.88
2023-02-09T01:01:52.767Z,103302.91
2023-02-09T01:04:19.421Z,103299.31
2023-02-09T01:06:46.126Z,103296.56
2023-02-09T01:09:12.848Z,103294.75
2023-02-09T01:11:39.524Z,103288.78
2023-02-09T01:14:06.310Z,103275.19
2023-02-09T01:16:33.077Z,103277.13
2023-02-09T01:19:01.906Z,103275.13
2023-02-09T01:21:30.571Z,103274.22
2023-02-09T01:23:57.918Z,103275.94
2023-02-09T01:26:24.601Z,103273.41
2023-02-09T01:28:53.140Z,103274.25
2023-02-09T01:31:32.029Z,103270.75
2023-02-09T01:34:01.042Z,103269.63
2023-02-09T01:36:28.648Z,103271.28
2023-02-09T01:38:56.777Z,103266.78
2023-02-09T01:41:23.761Z,103261.34
2023-02-09T01:44:07.212Z,103261.25
2023-02-09T01:46:35.906Z,103273.13
2023-02-09T01:49:13.534Z,103262.44
2023-02-09T01:52:03.400Z,103255.09
2023-02-09T01:54:33.022Z,103265.13
2023-02-09T01:57:08.137Z,103249.13
2023-02-09T01:59:36.875Z,103240.13
2023-02-09T02:02:05.786Z,103244.59
2023-02-09T02:04:34.137Z,103234.06
2023-02-09T02:07:11.262Z,103234.13
2023-02-09T02:09:37.926Z,103229.44
2023-02-09T02:12:05.560Z,103215.03
2023-02-09T02:14:35.443Z,103211.66
2023-02-09T02:17:37.386Z,103212.59
2023-02-09T02:20:13.139Z,103205.38
2023-02-09T02:22:39.655Z,103206.28
2023-02-09T02:25:54.447Z,103209.75
2023-02-09T02:28:21.059Z,103200.94
2023-02-09T02:31:02.956Z,103203.53
2023-02-09T02:33:40.408Z,103192.91
2023-02-09T02:36:21.293Z,103199.78
2023-02-09T02:39:11.143Z,103191.13
2023-02-09T02:42:06.978Z,103186.59
2023-02-09T02:44:40.288Z,103190.25
2023-02-09T02:47:11.349Z,103179.38
2023-02-09T02:49:42.497Z,103176.94
2023-02-09T02:52:11.327Z,103182.22
2023-02-09T02:54:42.400Z,103172.38
2023-02-09T02:57:15.628Z,103170.72
2023-02-09T02:59:46.558Z,103164.41
2023-02-09T03:02:35.004Z,103152.00
2023-02-09T03:05:04.331Z,103152.91
2023-02-09T03:07:31.922Z,103145.81
2023-02-09T03:09:58.696Z,103134.25
2023-02-09T03:12:51.089Z,103135.13
2023-02-09T03:15:40.272Z,103119.09
2023-02-09T03:18:31.196Z,103120.97
2023-02-09T03:21:12.198Z,103114.72
2023-02-09T03:24:14.481Z,103100.56
2023-02-09T03:26:54.370Z,103097.84
2023-02-09T03:29:23.823Z,103095.19
2023-02-09T03:31:51.198Z,103092.44
2023-02-09T03:34:18.773Z,103088.91
2023-02-09T03:36:51.872Z,103091.47
2023-02-09T03:39:18.573Z,103093.34
2023-02-09T03:41:45.287Z,103096.00
2023-02-09T03:44:27.117Z,103098.63
2023-02-09T03:46:55.782Z,103091.63
2023-02-09T03:49:22.988Z,103079.28
2023-02-09T03:51:49.746Z,103068.50
2023-02-09T03:54:16.496Z,103076.38
2023-02-09T03:56:43.165Z,103065.75
2023-02-09T03:59:09.881Z,103067.66
2023-02-09T04:01:36.667Z,103053.31
2023-02-09T04:04:04.155Z,103050.59
2023-02-09T04:06:32.244Z,103057.69
2023-02-09T04:08:59.824Z,103054.22
2023-02-09T04:11:26.942Z,103056.91
2023-02-09T04:13:53.838Z,103053.50
2023-02-09T04:16:20.652Z,103041.00
2023-02-09T04:18:47.458Z,103039.13
2023-02-09T04:21:14.171Z,103044.47
2023-02-09T04:23:40.944Z,103048.16
2023-02-09T04:26:07.629Z,103035.75
2023-02-09T04:28:34.843Z,103036.53
2023-02-09T04:31:01.585Z,103049.78
2023-02-09T04:33:28.363Z,103042.59
2023-02-09T04:35:54.995Z,103043.56
2023-02-09T04:38:22.369Z,103039.81
2023-02-09T04:40:51.000Z,103040.00
2023-02-09T04:43:18.494Z,103037.13
2023-02-09T04:45:45.775Z,103031.81
2023-02-09T04:48:15.039Z,103030.88
2023-02-09T04:50:42.429Z,103045.16
2023-02-09T04:53:09.203Z,103036.41
2023-02-09T04:55:40.364Z,103038.25
2023-02-09T04:58:25.526Z,103038.97
2023-02-09T05:00:55.380Z,103044.41
2023-02-09T05:03:24.489Z,103046.25
2023-02-09T05:05:58.574Z,103051.66
2023-02-09T05:08:25.453Z,103047.94
2023-02-09T05:10:53.175Z,103047.03
2023-02-09T05:13:21.320Z,103051.38
2023-02-09T05:15:48.102Z,103054.81
2023-02-09T05:18:14.951Z,103067.25
2023-02-09T05:20:43.428Z,103065.69
2023-02-09T05:23:10.844Z,103065.63
2023-02-09T05:25:38.176Z,103068.41
2023-02-09T05:28:05.817Z,103065.81
2023-02-09T05:30:32.961Z,103050.72
2023-02-09T05:32:59.626Z,103037.50
2023-02-09T05:35:26.437Z,103030.28
2023-02-09T05:37:53.171Z,103030.22
2023-02-09T05:40:19.908Z,103028.53
2023-02-09T05:42:46.531Z,103025.88
2023-02-09T05:45:13.242Z,103016.94
2023-02-09T05:47:39.969Z,103022.44
2023-02-09T05:50:06.789Z,103019.81
2023-02-09T05:52:33.580Z,103012.59
2023-02-09T05:55:00.252Z,103004.75
2023-02-09T05:57:26.976Z,103006.34
2023-02-09T05:59:53.621Z,103011.66
2023-02-09T06:02:20.712Z,103004.63
2023-02-09T06:04:47.414Z,102998.34
2023-02-09T06:07:14.109Z,102995.69
2023-02-09T06:09:40.915Z,103004.56
2023-02-09T06:12:07.706Z,103007.28
2023-02-09T06:14:34.372Z,103007.28
2023-02-09T06:17:01.270Z,103007.13
2023-02-09T06:19:30.194Z,103006.41
2023-02-09T06:21:56.847Z,102994.78
2023-02-09T06:24:23.538Z,102984.28
2023-02-09T06:26:50.298Z,102978.94
2023-02-09T06:29:16.919Z,102963.84
2023-02-09T06:31:43.672Z,102959.50
2023-02-09T06:34:10.508Z,102966.59
2023-02-09T06:36:37.215Z,102970.03
2023-02-09T06:39:08.189Z,102960.41
2023-02-09T06:41:34.858Z,102955.03
2023-02-09T06:44:01.604Z,102962.94
2023-02-09T06:46:28.832Z,102962.25
2023-02-09T06:48:55.668Z,102971.06
2023-02-09T06:51:22.593Z,102994.16
2023-02-09T06:53:49.514Z,102967.56
2023-02-09T06:56:16.256Z,102973.78
2023-02-09T06:58:43.017Z,102974.66
2023-02-09T07:01:12.450Z,102967.63
2023-02-09T07:03:39.246Z,102968.47
2023-02-09T07:06:12.500Z,102963.13
2023-02-09T07:08:39.468Z,102955.94
2023-02-09T07:11:12.325Z,102958.69
2023-02-09T07:13:39.251Z,102964.97
2023-02-09T07:16:08.388Z,102967.63
2023-02-09T07:18:35.969Z,102975.59
2023-02-09T07:21:19.820Z,102965.94
2023-02-09T07:23:53.316Z,102963.22
2023-02-09T07:26:20.098Z,102962.41
2023-02-09T07:28:47.120Z,102962.53
2023-02-09T07:31:15.691Z,102947.41
2023-02-09T07:33:42.610Z,102946.56
2023-02-09T07:36:12.123Z,102947.53
2023-02-09T07:38:39.450Z,102947.50
2023-02-09T07:41:08.357Z,102952.81
2023-02-09T07:43:35.211Z,102967.09
2023-02-09T07:46:07.689Z,102959.25
2023-02-09T07:48:35.581Z,102961.06
2023-02-09T07:51:02.678Z,102950.44
2023-02-09T07:53:29.952Z,102950.44
2023-02-09T07:55:57.335Z,102961.13
2023-02-09T07:58:24.060Z,102946.00
2023-02-09T08:00:51.583Z,102946.06
2023-02-09T08:03:23.137Z,102951.38
2023-02-09T08:06:04.212Z,102943.38
2023-02-09T08:08:31.068Z,102937.16
2023-02-09T08:10:59.537Z,102933.66
2023-02-09T08:13:30.635Z,102930.16
2023-02-09T08:16:02.949Z,102921.25
2023-02-09T08:18:34.444Z,102928.38
2023-02-09T08:21:01.167Z,102923.00
2023-02-09T08:23:34.381Z,102911.47
2023-02-09T08:26:06.511Z,102911.47
2023-02-09T08:28:43.657Z,102920.38
2023-02-09T08:31:12.979Z,102906.13
2023-02-09T08:33:40.417Z,102911.47
2023-02-09T08:36:07.701Z,102907.94
2023-02-09T08:38:35.349Z,102897.22
2023-02-09T08:41:06.892Z,102893.66
2023-02-09T08:43:33.837Z,102888.28
2023-02-09T08:46:12.577Z,102876.72
2023-02-09T08:48:42.204Z,102880.28
2023-02-09T08:51:12.113Z,102867.78
2023-02-09T08:53:39.211Z,102860.63
2023-02-09T08:56:06.276Z,102851.66
2023-02-09T08:58:33.526Z,102836.50
2023-02-09T09:01:00.599Z,102824.88
2023-02-09T09:03:31.335Z,102820.44
2023-02-09T09:05:59.610Z,102811.50
2023-02-09T09:08:26.456Z,102841.88
2023-02-09T09:10:53.262Z,102844.53
2023-02-09T09:13:20.891Z,102857.91
2023-02-09T09:15:48.097Z,102859.69
2023-02-09T09:18:15.118Z,102841.84
2023-02-09T09:20:42.320Z,102854.31
2023-02-09T09:23:09.561Z,102835.56
2023-02-09T09:25:38.818Z,102832.00
2023-02-09T09:28:06.564Z,102845.38
2023-02-09T09:30:33.654Z,102849.81
2023-02-09T09:33:00.502Z,102840.84
2023-02-09T09:35:27.883Z,102854.28
2023-02-09T09:37:57.332Z,102852.50
2023-02-09T09:40:37.200Z,102856.97
2023-02-09T09:43:07.710Z,102849.78
2023-02-09T09:45:38.484Z,102854.31
2023-02-09T09:48:07.294Z,102855.13
2023-02-09T09:50:41.308Z,102838.91
2023-02-09T09:53:17.467Z,102841.72
2023-02-09T09:55:45.364Z,102846.13
2023-02-09T09:58:17.792Z,102843.44
2023-02-09T10:00:45.331Z,102831.75
2023-02-09T10:03:15.266Z,102838.88
2023-02-09T10:05:43.688Z,102845.13
2023-02-09T10:08:10.425Z,102833.59
2023-02-09T10:10:56.274Z,102844.28
2023-02-09T10:13:32.275Z,102840.59
2023-02-09T10:15:59.295Z,102834.28
2023-02-09T10:18:26.426Z,102829.88
2023-02-09T10:20:56.868Z,102842.31
2023-02-09T10:23:45.532Z,102846.66
2023-02-09T10:26:12.133Z,102858.19
2023-02-09T10:28:42.386Z,102855.59
2023-02-09T10:31:19.349Z,102855.66
2023-02-09T10:33:50.352Z,102872.66
2023-02-09T10:36:33.811Z,102866.34
2023-02-09T10:39:12.877Z,102869.00
2023-02-09T10:41:42.035Z,102873.50
2023-02-09T10:44:25.116Z,102884.13
2023-02-09T10:47:23.949Z,102877.84
2023-02-09T10:50:01.208Z,102880.63
2023-02-09T10:52:34.468Z,102872.41
2023-02-09T10:55:16.993Z,102874.28
2023-02-09T10:57:43.630Z,102877.78
2023-02-09T11:00:16.284Z,102878.59
2023-02-09T11:02:49.926Z,102880.47
2023-02-09T11:05:22.696Z,102886.69
2023-02-09T11:07:56.389Z,102888.38
2023-02-09T11:10:23.579Z,102897.22
2023-02-09T11:12:50.326Z,102899.88
2023-02-09T11:15:27.864Z,102894.56
2023-02-09T11:18:16.924Z,102898.09
2023-02-09T11:20:51.780Z,102893.63
2023-02-09T11:23:32.491Z,102895.47
2023-02-09T11:26:07.522Z,102902.59
2023-02-09T11:28:47.787Z,102924.03
2023-02-09T11:31:46.807Z,102916.94
2023-02-09T11:34:46.745Z,102912.47
2023-02-09T11:37:25.588Z,102920.63
2023-02-09T11:40:19.741Z,102929.50
2023-02-09T11:43:01.874Z,102935.75
2023-02-09T11:45:31.580Z,102927.66
2023-02-09T11:48:08.969Z,102926.81
2023-02-09T11:51:08.210Z,102918.78
2023-02-09T11:53:43.944Z,102915.16
2023-02-09T11:56:16.594Z,102929.41
2023-02-09T11:59:06.432Z,102933.97
2023-02-09T12:01:51.684Z,102938.38
2023-02-09T12:04:47.320Z,102936.59
2023-02-09T12:07:35.349Z,102934.84
2023-02-09T12:10:44.632Z,102927.66
2023-02-09T12:13:32.262Z,102917.63
2023-02-09T12:16:08.014Z,102918.59
2023-02-09T12:18:36.005Z,102915.00
2023-02-09T12:21:05.521Z,102911.25
2023-02-09T12:23:50.350Z,102902.34
2023-02-09T12:26:17.009Z,102888.13
2023-02-09T12:29:16.830Z,102896.16
2023-02-09T12:32:06.866Z,102880.06
2023-02-09T12:34:46.609Z,102894.34
2023-02-09T12:37:13.218Z,102888.06
2023-02-09T12:40:07.855Z,102886.19
2023-02-09T12:42:44.060Z,102883.53
2023-02-09T12:45:32.251Z,102879.91
2023-02-09T12:48:11.743Z,102887.81
2023-02-09T12:50:54.533Z,102876.38
2023-02-09T12:53:24.475Z,102877.38
2023-02-09T12:56:30.616Z,102884.53
2023-02-09T12:59:17.824Z,102890.81
2023-02-09T13:02:06.446Z,102896.94
2023-02-09T13:04:50.688Z,102898.78
2023-02-09T13:07:49.236Z,102902.38
2023-02-09T13:10:22.692Z,102910.50
2023-02-09T13:13:13.348Z,102906.03
2023-02-09T13:16:04.674Z,102905.09
2023-02-09T13:18:52.235Z,102904.28
2023-02-09T13:21:36.105Z,102906.97
2023-02-09T13:24:09.735Z,102885.50
2023-02-09T13:26:48.922Z,102896.16
2023-02-09T13:29:21.318Z,102894.44
2023-02-09T13:32:17.551Z,102901.59
2023-02-09T13:34:56.745Z,102904.28
2023-02-09T13:37:35.550Z,102905.19
2023-02-09T13:40:15.731Z,102898.91
2023-02-09T13:42:53.934Z,102913.19
2023-02-09T13:45:21.258Z,102900.63
2023-02-09T13:47:48.066Z,102905.09
2023-02-09T13:50:18.412Z,102911.38
2023-02-09T13:52:45.384Z,102914.09
2023-02-09T13:55:13.663Z,102911.41
2023-02-09T13:57:43.771Z,102914.09
2023-02-09T14:00:13.449Z,102907.84
2023-02-09T14:02:46.943Z,102905.09
2023-02-09T14:05:32.377Z,102912.31
2023-02-09T14:07:59.868Z,102912.34
2023-02-09T14:10:28.969Z,102915.00
2023-02-09T14:13:03.992Z,102912.31
2023-02-09T14:15:52.290Z,102913.22
2023-02-09T14:18:28.116Z,102912.38
2023-02-09T14:21:04.025Z,102917.59
2023-02-09T14:23:35.008Z,102923.06
2023-02-09T14:26:15.399Z,102915.94
2023-02-09T14:28:45.720Z,102920.38
2023-02-09T14:31:19.513Z,102921.25
2023-02-09T14:33:51.046Z,102914.16
2023-02-09T14:36:36.453Z,102913.25
2023-02-09T14:39:16.392Z,102918.53
2023-02-09T14:42:18.610Z,102923.09
2023-02-09T14:44:55.623Z,102932.03
2023-02-09T14:47:39.322Z,102931.09
2023-02-09T14:50:21.963Z,102934.66
2023-02-09T14:52:53.402Z,102937.38
2023-02-09T14:55:27.415Z,102939.16
2023-02-09T14:57:54.148Z,102943.72
2023-02-09T15:00:24.724Z,102946.28
2023-02-09T15:02:53.037Z,102949.03
2023-02-09T15:05:21.245Z,102938.28
2023-02-09T15:07:51.210Z,102944.53
2023-02-09T15:10:32.077Z,102940.81
2023-02-09T15:12:59.652Z,102947.25
2023-02-09T15:15:26.830Z,102949.06
2023-02-09T15:17:55.285Z,102957.19
2023-02-09T15:20:26.274Z,102941.13
2023-02-09T15:22:54.334Z,102938.41
2023-02-09T15:25:22.909Z,102950.09
2023-02-09T15:27:57.283Z,102941.16
2023-02-09T15:30:28.159Z,102948.38
2023-02-09T15:32:54.846Z,102937.59
2023-02-09T15:35:27.618Z,102943.88
2023-02-09T15:38:02.111Z,102933.22
2023-02-09T15:40:53.065Z,102931.34
2023-02-09T15:43:40.148Z,102930.47
2023-02-09T15:46:26.842Z,102933.22
2023-02-09T15:48:53.535Z,102930.53
2023-02-09T15:51:22.106Z,102931.41
2023-02-09T15:53:49.011Z,102930.50
2023-02-09T15:56:16.220Z,102927.81
2023-02-09T15:58:45.910Z,102937.66
2023-02-09T16:01:14.583Z,102932.28
2023-02-09T16:03:41.393Z,102938.56
2023-02-09T16:06:16.069Z,102926.91
2023-02-09T16:08:44.192Z,102926.94
2023-02-09T16:11:23.197Z,102920.69
2023-02-09T16:13:50.453Z,102931.38
2023-02-09T16:16:20.042Z,102939.41
2023-02-09T16:18:47.245Z,102942.06
2023-02-09T16:21:23.839Z,102943.94
2023-02-09T16:23:53.066Z,102943.94
2023-02-09T16:26:20.965Z,102934.09
2023-02-09T16:28:47.716Z,102938.53
2023-02-09T16:31:14.511Z,102939.44
2023-02-09T16:33:43.214Z,102926.00
2023-02-09T16:36:17.098Z,102937.66
2023-02-09T16:38:44.179Z,102948.31
2023-02-09T16:41:41.133Z,102945.63
2023-02-09T16:44:19.004Z,102952.78
2023-02-09T16:46:48.283Z,102956.31
2023-02-09T16:49:31.634Z,102959.03
2023-02-09T16:52:02.693Z,102968.00
2023-02-09T16:54:33.134Z,102967.09
2023-02-09T16:57:00.920Z,102974.22
2023-02-09T16:59:27.664Z,102976.00
2023-02-09T17:01:54.496Z,102964.34
2023-02-09T17:04:21.229Z,102971.53
2023-02-09T17:06:52.752Z,102962.53
2023-02-09T17:09:19.427Z,102963.44
2023-02-09T17:11:46.121Z,102968.91
2023-02-09T17:14:12.821Z,102968.06
2023-02-09T17:16:43.375Z,102969.84
2023-02-09T17:19:15.388Z,102974.28
2023-02-09T17:21:42.496Z,102979.66
2023-02-09T17:24:18.392Z,102966.22
2023-02-09T17:26:45.094Z,102967.03
2023-02-09T17:29:12.097Z,102971.50
2023-02-09T17:31:52.750Z,102965.22
2023-02-09T17:34:26.866Z,102963.47
2023-02-09T17:36:53.576Z,102958.03
2023-02-09T17:39:20.551Z,102957.19
2023-02-09T17:41:49.898Z,102959.84
2023-02-09T17:44:26.376Z,102963.41
2023-02-09T17:46:58.943Z,102963.44
2023-02-09T17:49:25.666Z,102950.91
2023-02-09T17:51:52.944Z,102940.16
2023-02-09T17:54:20.828Z,102950.84
2023-02-09T17:56:47.831Z,102944.63
2023-02-09T17:59:14.905Z,102949.09
2023-02-09T18:01:49.483Z,102942.75
2023-02-09T18:04:22.200Z,102943.66
2023-02-09T18:06:48.862Z,102929.34
2023-02-09T18:09:15.555Z,102931.06
2023-02-09T18:11:45.345Z,102933.78
2023-02-09T18:14:13.966Z,102929.31
2023-02-09T18:16:42.559Z,102919.44
2023-02-09T18:19:10.882Z,102920.34
2023-02-09T18:21:38.377Z,102910.47
2023-02-09T18:24:06.372Z,102905.06
2023-02-09T18:26:33.827Z,102911.38
2023-02-09T18:29:00.547Z,102899.72
2023-02-09T18:31:27.280Z,102905.09
2023-02-09T18:33:56.045Z,102889.00
2023-02-09T18:36:22.773Z,102893.47
2023-02-09T18:38:50.985Z,102882.75
2023-02-09T18:41:17.755Z,102877.31
2023-02-09T18:43:44.730Z,102857.66
2023-02-09T18:46:14.528Z,102862.13
2023-02-09T18:48:41.285Z,102857.66
2023-02-09T18:51:09.260Z,102854.91
2023-02-09T18:53:37.613Z,102839.75
2023-02-09T18:56:04.540Z,102844.22
2023-02-09T18:58:31.481Z,102854.03
2023-02-09T19:00:58.371Z,102843.19
2023-02-09T19:03:25.178Z,102837.81
2023-02-09T19:05:51.977Z,102827.19
2023-02-09T19:08:18.652Z,102823.56
2023-02-09T19:10:45.350Z,102822.59
2023-02-09T19:13:11.998Z,102816.34
2023-02-09T19:15:39.974Z,102807.34
2023-02-09T19:18:06.682Z,102785.66
2023-02-09T19:20:34.295Z,102793.94
2023-02-09T19:23:02.547Z,102784.94
2023-02-09T19:25:30.413Z,102786.75
2023-02-09T19:27:57.219Z,102790.28
2023-02-09T19:30:25.130Z,102784.06
2023-02-09T19:32:54.065Z,102783.13
2023-02-09T19:35:22.843Z,102758.78
2023-02-09T19:37:57.383Z,102765.09
2023-02-09T19:40:35.699Z,102757.91
2023-02-09T19:43:03.838Z,102748.13
2023-02-09T19:45:36.279Z,102741.03
2023-02-09T19:48:05.592Z,102730.28
2023-02-09T19:50:32.736Z,102722.09
2023-02-09T19:52:59.545Z,102713.19
2023-02-09T19:55:26.215Z,102708.59
2023-02-09T19:57:52.878Z,102707.69
2023-02-09T20:00:19.706Z,102687.97
2023-02-09T20:02:47.343Z,102667.19
2023-02-09T20:05:16.089Z,102664.56
2023-02-09T20:07:43.485Z,102654.66
2023-02-09T20:10:10.850Z,102658.19
2023-02-09T20:12:37.483Z,102650.00
2023-02-09T20:15:04.301Z,102647.34
2023-02-09T20:17:30.927Z,102638.31
2023-02-09T20:19:57.698Z,102637.44
2023-02-09T20:22:24.355Z,102623.91
2023-02-09T20:24:51.046Z,102611.47
2023-02-09T20:27:19.105Z,102603.31
2023-02-09T20:29:45.796Z,102593.38
2023-02-09T20:32:12.560Z,102588.00
2023-02-09T20:34:39.285Z,102588.06
2023-02-09T20:37:05.929Z,102580.91
2023-02-09T20:39:32.891Z,102570.22
2023-02-09T20:42:18.794Z,102566.56
2023-02-09T20:45:04.160Z,102548.59
2023-02-09T20:47:30.889Z,102542.34
2023-02-09T20:50:00.060Z,102537.00
2023-02-09T20:52:29.240Z,102528.97
2023-02-09T20:54:56.552Z,102518.06
2023-02-09T20:57:29.267Z,102504.63
2023-02-09T21:00:00.113Z,102498.34
2023-02-09T21:02:27.573Z,102491.97
2023-02-09T21:04:56.206Z,102489.28
2023-02-09T21:07:23.095Z,102485.75
2023-02-09T21:09:49.811Z,102478.53
2023-02-09T21:12:16.501Z,102437.28
2023-02-09T21:14:46.445Z,102439.06
2023-02-09T21:17:13.596Z,102427.47
2023-02-09T21:19:40.701Z,102442.72
2023-02-09T21:22:07.408Z,102434.66
2023-02-09T21:24:34.275Z,102433.53
2023-02-09T21:27:00.903Z,102431.06
2023-02-09T21:29:29.208Z,102428.31
2023-02-09T21:31:56.555Z,102425.69
2023-02-09T21:34:23.516Z,102414.84
2023-02-09T21:36:50.251Z,102407.53
2023-02-09T21:39:16.966Z,102404.84
2023-02-09T21:42:02.188Z,102400.50
2023-02-09T21:44:29.084Z,102399.50
2023-02-09T21:46:55.764Z,102392.09
2023-02-09T21:49:22.594Z,102388.69
2023-02-09T21:51:49.728Z,102377.88
2023-02-09T21:54:17.906Z,102384.31
2023-02-09T21:56:45.152Z,102388.63
2023-02-09T21:59:12.020Z,102386.03
2023-02-09T22:01:39.571Z,102379.00
2023-02-09T22:04:06.357Z,102394.06
2023-02-09T22:06:33.154Z,102401.31
2023-02-09T22:09:02.772Z,102397.69
2023-02-09T22:11:29.919Z,102384.97
2023-02-09T22:13:56.631Z,102386.00
2023-02-09T22:16:23.956Z,102387.78
2023-02-09T22:18:50.973Z,102379.84
2023-02-09T22:21:18.352Z,102386.06
2023-02-09T22:23:45.118Z,102379.94
2023-02-09T22:26:15.057Z,102376.41
2023-02-09T22:28:42.486Z,102370.94
2023-02-09T22:31:12.783Z,102378.16
2023-02-09T22:33:40.939Z,102375.56
2023-02-09T22:36:13.700Z,102376.31
2023-02-09T22:38:40.719Z,102383.81
2023-02-09T22:41:21.282Z,102382.94
2023-02-09T22:43:58.678Z,102386.38
2023-02-09T22:46:28.630Z,102382.81
2023-02-09T22:48:58.192Z,102384.72
2023-02-09T22:51:28.310Z,102380.31
2023-02-09T22:53:58.543Z,102372.00
2023-02-09T22:56:26.341Z,102359.44
2023-02-09T22:58:54.432Z,102350.28
2023-02-09T23:01:21.671Z,102354.88
2023-02-09T23:03:48.788Z,102344.91
2023-02-09T23:06:20.732Z,102361.03
2023-02-09T23:08:47.739Z,102356.25
2023-02-09T23:11:17.155Z,102355.50
2023-02-09T23:13:44.199Z,102349.88
2023-02-09T23:16:16.640Z,102361.63
2023-02-09T23:18:49.670Z,102354.31
2023-02-09T23:21:17.809Z,102345.19
2023-02-09T23:23:45.024Z,102351.63
2023-02-09T23:26:12.387Z,102352.41
2023-02-09T23:28:39.129Z,102345.34
2023-02-09T23:31:07.543Z,102343.66
2023-02-09T23:33:35.703Z,102338.19
2023-02-09T23:36:07.495Z,102331.81
2023-02-09T23:38:34.595Z,102332.69
2023-02-09T23:41:06.732Z,102334.50
2023-02-09T23:43:34.300Z,102338.97
2023-02-09T23:46:02.340Z,102337.16
2023-02-09T23:48:29.091Z,102340.94
2023-02-09T23:51:04.185Z,102343.72
2023-02-09T23:53:31.463Z,102337.69
2023-02-09T23:56:03.785Z,102335.84
2023-02-09T23:58:39.247Z,102332.50
